Loveland Island — H3BB — position and weather

sailwx.info

Track history (hours):
 
Tides and Currents Weather Stations Pressure Air Temp Water Temp Dewpoint Dewpoint Depression Visibility Wind Speed Wind Dir Waves Ship Positions

Loveland Island

Last reported at 2018-Jul-12 19:39 UTC. Time now 2018-Jul-20 16:07 UTC.
Position N 01°17' E 103°21'.

Length 169 m; draft 8.6 m.

Type: Cargo ship. MMSI: 354174000.

Date/timePositionNaut miles runAvg speedWind from/ knotsBaromVisibWave heightAir tempDewpointWater temp
2018-Jul-12 19:39N 01°17' E 103°21'213.0
2018-Jul-12 19:28N 01°16' E 103°22'613.1
2018-Jul-12 19:00N 01°14' E 103°28'612.2
2018-Jul-12 18:30N 01°12' E 103°34'510.8
2018-Jul-12 18:00N 01°11' E 103°39'510.7
2018-Jul-12 17:31N 01°09' E 103°44'4 8.8
2018-Jul-12 17:00N 01°10' E 103°48'4 8.8
2018-Jul-12 16:30N 01°12' E 103°52'5 9.4
2018-Jul-12 16:00N 01°15' E 103°56'3 5.5
2018-Jul-12 15:30N 01°17' E 103°55'0 0.3
2018-Jul-12 14:56N 01°17' E 103°55'0 0.1
2018-Jul-12 14:28N 01°17' E 103°55'0 0.1
2018-Jul-12 13:59N 01°17' E 103°55'0 0.2
2018-Jul-12 13:29N 01°17' E 103°55'0 0.0
2018-Jul-12 12:59N 01°17' E 103°55'0 0.1
2018-Jul-12 12:29N 01°17' E 103°55'0 0.0
2018-Jul-12 11:59N 01°17' E 103°55'0 0.0
2018-Jul-12 11:29N 01°17' E 103°55'0 0.0
2018-Jul-12 10:59N 01°17' E 103°55'0 0.0
2018-Jul-12 10:25N 01°17' E 103°55'0 0.0
2018-Jul-12 09:58N 01°17' E 103°55'0 0.1
2018-Jul-12 09:20N 01°17' E 103°55'0 0.1
2018-Jul-12 08:56N 01°17' E 103°55'0 0.0
2018-Jul-12 08:26N 01°17' E 103°55'0 0.0
2018-Jul-12 07:53N 01°17' E 103°55'0 0.2
2018-Jul-12 07:29N 01°17' E 103°55'0 0.0
2018-Jul-12 06:59N 01°17' E 103°55'0 0.1
2018-Jul-12 06:29N 01°17' E 103°55'0 0.0
2018-Jul-12 05:59N 01°17' E 103°55'0 0.0
2018-Jul-12 05:29N 01°17' E 103°55'0 0.1
2018-Jul-12 04:56N 01°17' E 103°55'1 1.6
2018-Jul-12 04:30N 01°17' E 103°56'3 5.4
2018-Jul-12 04:00N 01°16' E 103°58'3 5.4
2018-Jul-12 03:30N 01°16' E 104°01'3 6.7
2018-Jul-12 03:00N 01°16' E 104°05'4 8.1
2018-Jul-12 02:30N 01°17' E 104°09'4 7.8
2018-Jul-12 01:59N 01°17' E 104°13'4 8.6
2018-Jul-12 01:30N 01°18' E 104°17'5 9.3
2018-Jul-12 00:58N 01°20' E 104°21'611.8
2018-Jul-12 00:27N 01°24' E 104°26'510.3
2018-Jul-11 23:58N 01°27' E 104°29'  
2018-Jul-06 08:15N 23°18' E 117°36'311.0
2018-Jul-06 08:00N 23°19' E 117°38'610.7
2018-Jul-06 07:29N 23°23' E 117°43'510.3
2018-Jul-06 07:00N 23°25' E 117°48'510.2
2018-Jul-06 06:30N 23°27' E 117°53'510.1
2018-Jul-06 06:00N 23°29' E 117°58'510.3
2018-Jul-06 05:29N 23°31' E 118°03'510.3
2018-Jul-06 05:00N 23°34' E 118°08'510.7
2018-Jul-06 04:30N 23°37' E 118°13'511.0
2018-Jul-06 04:00N 23°39' E 118°18'611.2
2018-Jul-06 03:30N 23°42' E 118°24'611.5
2018-Jul-06 03:00N 23°45' E 118°29'611.0
2018-Jul-06 02:28N 23°48' E 118°35'511.1
2018-Jul-06 01:59N 23°50' E 118°40'611.1
2018-Jul-06 01:25N 23°53' E 118°46'  
2018-Jul-02 21:26N 31°16' E 121°55'  
Track history (hours):
 
Tides and Currents Weather Stations Pressure Air Temp Water Temp Dewpoint Dewpoint Depression Visibility Wind Speed Wind Dir Waves Ship Positions

Loveland Island

Last reported at 2018-Jul-12 19:39 UTC. Time now 2018-Jul-20 16:07 UTC.
Position N 01°17' E 103°21'.

Length 169 m; draft 8.6 m.

Type: Cargo ship. MMSI: 354174000.

Date/timePositionNaut miles runAvg speedWind from/ knotsBaromVisibWave heightAir tempDewpointWater temp
2018-Jul-12 19:39N 01°17' E 103°21'213.0
2018-Jul-12 19:28N 01°16' E 103°22'613.1
2018-Jul-12 19:00N 01°14' E 103°28'612.2
2018-Jul-12 18:30N 01°12' E 103°34'510.8
2018-Jul-12 18:00N 01°11' E 103°39'510.7
2018-Jul-12 17:31N 01°09' E 103°44'4 8.8
2018-Jul-12 17:00N 01°10' E 103°48'4 8.8
2018-Jul-12 16:30N 01°12' E 103°52'5 9.4
2018-Jul-12 16:00N 01°15' E 103°56'3 5.5
2018-Jul-12 15:30N 01°17' E 103°55'0 0.3
2018-Jul-12 14:56N 01°17' E 103°55'0 0.1
2018-Jul-12 14:28N 01°17' E 103°55'0 0.1
2018-Jul-12 13:59N 01°17' E 103°55'0 0.2
2018-Jul-12 13:29N 01°17' E 103°55'0 0.0
2018-Jul-12 12:59N 01°17' E 103°55'0 0.1
2018-Jul-12 12:29N 01°17' E 103°55'0 0.0
2018-Jul-12 11:59N 01°17' E 103°55'0 0.0
2018-Jul-12 11:29N 01°17' E 103°55'0 0.0
2018-Jul-12 10:59N 01°17' E 103°55'0 0.0
2018-Jul-12 10:25N 01°17' E 103°55'0 0.0
2018-Jul-12 09:58N 01°17' E 103°55'0 0.1
2018-Jul-12 09:20N 01°17' E 103°55'0 0.1
2018-Jul-12 08:56N 01°17' E 103°55'0 0.0
2018-Jul-12 08:26N 01°17' E 103°55'0 0.0
2018-Jul-12 07:53N 01°17' E 103°55'0 0.2
2018-Jul-12 07:29N 01°17' E 103°55'0 0.0
2018-Jul-12 06:59N 01°17' E 103°55'0 0.1
2018-Jul-12 06:29N 01°17' E 103°55'0 0.0
2018-Jul-12 05:59N 01°17' E 103°55'0 0.0
2018-Jul-12 05:29N 01°17' E 103°55'0 0.1
2018-Jul-12 04:56N 01°17' E 103°55'1 1.6
2018-Jul-12 04:30N 01°17' E 103°56'3 5.4
2018-Jul-12 04:00N 01°16' E 103°58'3 5.4
2018-Jul-12 03:30N 01°16' E 104°01'3 6.7
2018-Jul-12 03:00N 01°16' E 104°05'4 8.1
2018-Jul-12 02:30N 01°17' E 104°09'4 7.8
2018-Jul-12 01:59N 01°17' E 104°13'4 8.6
2018-Jul-12 01:30N 01°18' E 104°17'5 9.3
2018-Jul-12 00:58N 01°20' E 104°21'611.8
2018-Jul-12 00:27N 01°24' E 104°26'510.3
2018-Jul-11 23:58N 01°27' E 104°29'  
2018-Jul-06 08:15N 23°18' E 117°36'311.0
2018-Jul-06 08:00N 23°19' E 117°38'610.7
2018-Jul-06 07:29N 23°23' E 117°43'510.3
2018-Jul-06 07:00N 23°25' E 117°48'510.2
2018-Jul-06 06:30N 23°27' E 117°53'510.1
2018-Jul-06 06:00N 23°29' E 117°58'510.3
2018-Jul-06 05:29N 23°31' E 118°03'510.3
2018-Jul-06 05:00N 23°34' E 118°08'510.7
2018-Jul-06 04:30N 23°37' E 118°13'511.0
2018-Jul-06 04:00N 23°39' E 118°18'611.2
2018-Jul-06 03:30N 23°42' E 118°24'611.5
2018-Jul-06 03:00N 23°45' E 118°29'611.0
2018-Jul-06 02:28N 23°48' E 118°35'511.1
2018-Jul-06 01:59N 23°50' E 118°40'611.1
2018-Jul-06 01:25N 23°53' E 118°46'  
2018-Jul-02 21:26N 31°16' E 121°55'  

Dump ship's entire track history